sensor_id;sensor_type;location;lat;lon;timestamp;P1;durP1;ratioP1;P2;durP2;ratioP2
73697;SDS011;62004;42.566;23.164;2022-12-28T00:00:54;5.00;;;3.40;;
73697;SDS011;62004;42.566;23.164;2022-12-28T00:03:20;4.57;;;3.53;;
73697;SDS011;62004;42.566;23.164;2022-12-28T00:05:45;5.18;;;3.58;;
73697;SDS011;62004;42.566;23.164;2022-12-28T00:08:11;5.63;;;3.45;;
73697;SDS011;62004;42.566;23.164;2022-12-28T00:10:36;5.93;;;3.50;;
73697;SDS011;62004;42.566;23.164;2022-12-28T00:13:01;5.75;;;4.10;;
73697;SDS011;62004;42.566;23.164;2022-12-28T00:15:27;5.10;;;3.75;;
73697;SDS011;62004;42.566;23.164;2022-12-28T00:17:52;5.28;;;3.67;;
73697;SDS011;62004;42.566;23.164;2022-12-28T00:20:17;5.05;;;3.70;;
73697;SDS011;62004;42.566;23.164;2022-12-28T00:22:43;4.43;;;3.33;;
73697;SDS011;62004;42.566;23.164;2022-12-28T00:25:08;4.72;;;3.58;;
73697;SDS011;62004;42.566;23.164;2022-12-28T00:27:34;6.00;;;4.13;;
73697;SDS011;62004;42.566;23.164;2022-12-28T00:29:59;4.60;;;3.58;;
73697;SDS011;62004;42.566;23.164;2022-12-28T00:32:25;5.22;;;4.07;;
73697;SDS011;62004;42.566;23.164;2022-12-28T00:34:51;6.82;;;3.88;;
73697;SDS011;62004;42.566;23.164;2022-12-28T00:37:16;4.60;;;3.30;;
73697;SDS011;62004;42.566;23.164;2022-12-28T00:39:41;6.30;;;4.07;;
73697;SDS011;62004;42.566;23.164;2022-12-28T00:42:07;5.25;;;3.33;;
73697;SDS011;62004;42.566;23.164;2022-12-28T00:44:33;5.35;;;4.38;;
73697;SDS011;62004;42.566;23.164;2022-12-28T00:46:58;5.15;;;3.92;;
73697;SDS011;62004;42.566;23.164;2022-12-28T00:49:23;4.18;;;3.15;;
73697;SDS011;62004;42.566;23.164;2022-12-28T00:51:49;5.60;;;3.10;;
73697;SDS011;62004;42.566;23.164;2022-12-28T00:54:14;5.18;;;3.80;;
73697;SDS011;62004;42.566;23.164;2022-12-28T00:56:40;6.68;;;4.15;;
73697;SDS011;62004;42.566;23.164;2022-12-28T00:59:07;4.70;;;3.72;;
73697;SDS011;62004;42.566;23.164;2022-12-28T01:01:33;5.45;;;3.83;;
73697;SDS011;62004;42.566;23.164;2022-12-28T01:03:58;6.28;;;4.13;;
73697;SDS011;62004;42.566;23.164;2022-12-28T01:06:25;5.38;;;4.10;;
73697;SDS011;62004;42.566;23.164;2022-12-28T01:08:51;10.95;;;4.53;;
73697;SDS011;62004;42.566;23.164;2022-12-28T01:11:18;7.38;;;3.60;;
73697;SDS011;62004;42.566;23.164;2022-12-28T01:13:45;6.00;;;4.20;;
73697;SDS011;62004;42.566;23.164;2022-12-28T01:16:12;6.15;;;4.18;;
73697;SDS011;62004;42.566;23.164;2022-12-28T01:18:41;6.68;;;3.85;;
73697;SDS011;62004;42.566;23.164;2022-12-28T01:21:11;4.78;;;3.42;;
73697;SDS011;62004;42.566;23.164;2022-12-28T01:23:40;4.38;;;3.70;;
73697;SDS011;62004;42.566;23.164;2022-12-28T01:26:06;5.00;;;3.67;;
73697;SDS011;62004;42.566;23.164;2022-12-28T01:28:31;5.25;;;3.25;;
73697;SDS011;62004;42.566;23.164;2022-12-28T01:31:03;5.35;;;3.47;;
73697;SDS011;62004;42.566;23.164;2022-12-28T01:33:32;5.07;;;3.65;;
73697;SDS011;62004;42.566;23.164;2022-12-28T01:35:58;5.45;;;4.13;;
73697;SDS011;62004;42.566;23.164;2022-12-28T01:38:23;4.90;;;3.67;;
73697;SDS011;62004;42.566;23.164;2022-12-28T01:40:49;5.88;;;3.55;;
73697;SDS011;62004;42.566;23.164;2022-12-28T01:43:14;5.35;;;3.78;;
73697;SDS011;62004;42.566;23.164;2022-12-28T01:45:40;4.53;;;3.50;;
73697;SDS011;62004;42.566;23.164;2022-12-28T01:48:11;6.38;;;4.53;;
73697;SDS011;62004;42.566;23.164;2022-12-28T01:50:41;5.28;;;3.78;;
73697;SDS011;62004;42.566;23.164;2022-12-28T01:53:07;5.32;;;3.95;;
73697;SDS011;62004;42.566;23.164;2022-12-28T01:55:33;5.22;;;3.58;;
73697;SDS011;62004;42.566;23.164;2022-12-28T01:58:04;4.47;;;3.25;;
73697;SDS011;62004;42.566;23.164;2022-12-28T02:00:31;4.88;;;3.13;;
73697;SDS011;62004;42.566;23.164;2022-12-28T02:03:04;4.30;;;3.30;;
73697;SDS011;62004;42.566;23.164;2022-12-28T02:05:38;5.47;;;3.03;;
73697;SDS011;62004;42.566;23.164;2022-12-28T02:10:36;4.65;;;3.15;;
73697;SDS011;62004;42.566;23.164;2022-12-28T02:13:01;5.65;;;3.58;;
73697;SDS011;62004;42.566;23.164;2022-12-28T02:15:27;4.15;;;3.20;;
73697;SDS011;62004;42.566;23.164;2022-12-28T02:17:53;4.50;;;3.78;;
73697;SDS011;62004;42.566;23.164;2022-12-28T02:20:18;4.45;;;3.40;;
73697;SDS011;62004;42.566;23.164;2022-12-28T02:31:14;5.60;;;4.30;;
73697;SDS011;62004;42.566;23.164;2022-12-28T02:33:45;6.10;;;4.05;;
73697;SDS011;62004;42.566;23.164;2022-12-28T02:36:21;6.45;;;4.57;;
73697;SDS011;62004;42.566;23.164;2022-12-28T02:38:58;7.43;;;5.25;;
73697;SDS011;62004;42.566;23.164;2022-12-28T02:41:26;8.85;;;6.05;;
73697;SDS011;62004;42.566;23.164;2022-12-28T02:43:52;10.73;;;7.10;;
73697;SDS011;62004;42.566;23.164;2022-12-28T02:46:21;11.25;;;7.50;;
73697;SDS011;62004;42.566;23.164;2022-12-28T02:52:15;13.52;;;8.15;;
73697;SDS011;62004;42.566;23.164;2022-12-28T02:54:56;12.50;;;8.32;;
73697;SDS011;62004;42.566;23.164;2022-12-28T03:00:28;12.55;;;7.93;;
73697;SDS011;62004;42.566;23.164;2022-12-28T03:03:23;12.05;;;7.35;;
73697;SDS011;62004;42.566;23.164;2022-12-28T03:05:54;11.70;;;6.90;;
73697;SDS011;62004;42.566;23.164;2022-12-28T03:08:58;10.25;;;6.65;;
73697;SDS011;62004;42.566;23.164;2022-12-28T03:11:37;12.15;;;7.30;;
73697;SDS011;62004;42.566;23.164;2022-12-28T03:14:05;10.90;;;7.10;;
73697;SDS011;62004;42.566;23.164;2022-12-28T03:16:35;12.38;;;7.72;;
73697;SDS011;62004;42.566;23.164;2022-12-28T03:19:22;10.40;;;7.53;;
73697;SDS011;62004;42.566;23.164;2022-12-28T03:22:10;11.43;;;7.53;;
73697;SDS011;62004;42.566;23.164;2022-12-28T03:24:54;12.48;;;6.80;;
73697;SDS011;62004;42.566;23.164;2022-12-28T03:27:38;13.70;;;7.88;;
73697;SDS011;62004;42.566;23.164;2022-12-28T03:30:23;12.45;;;7.88;;
73697;SDS011;62004;42.566;23.164;2022-12-28T03:33:07;12.95;;;8.15;;
73697;SDS011;62004;42.566;23.164;2022-12-28T03:35:37;13.85;;;8.90;;
73697;SDS011;62004;42.566;23.164;2022-12-28T03:38:06;14.80;;;9.48;;
73697;SDS011;62004;42.566;23.164;2022-12-28T03:40:47;12.45;;;8.10;;
73697;SDS011;62004;42.566;23.164;2022-12-28T03:43:15;13.63;;;7.82;;
73697;SDS011;62004;42.566;23.164;2022-12-28T03:46:03;10.40;;;7.18;;
73697;SDS011;62004;42.566;23.164;2022-12-28T03:48:41;13.68;;;7.88;;
73697;SDS011;62004;42.566;23.164;2022-12-28T03:51:08;14.23;;;8.57;;
73697;SDS011;62004;42.566;23.164;2022-12-28T03:53:41;14.68;;;8.60;;
73697;SDS011;62004;42.566;23.164;2022-12-28T03:56:08;14.40;;;8.20;;
73697;SDS011;62004;42.566;23.164;2022-12-28T03:58:39;14.88;;;8.85;;
73697;SDS011;62004;42.566;23.164;2022-12-28T04:01:04;15.07;;;9.27;;
73697;SDS011;62004;42.566;23.164;2022-12-28T04:03:31;14.18;;;8.68;;
73697;SDS011;62004;42.566;23.164;2022-12-28T04:05:56;13.52;;;9.00;;
73697;SDS011;62004;42.566;23.164;2022-12-28T04:08:22;14.75;;;8.80;;
73697;SDS011;62004;42.566;23.164;2022-12-28T04:10:47;16.55;;;8.95;;
73697;SDS011;62004;42.566;23.164;2022-12-28T04:13:13;14.82;;;9.32;;
73697;SDS011;62004;42.566;23.164;2022-12-28T04:15:38;12.98;;;8.68;;
73697;SDS011;62004;42.566;23.164;2022-12-28T04:18:03;15.95;;;8.35;;
73697;SDS011;62004;42.566;23.164;2022-12-28T04:20:29;13.80;;;7.57;;
73697;SDS011;62004;42.566;23.164;2022-12-28T04:22:54;12.50;;;7.63;;
73697;SDS011;62004;42.566;23.164;2022-12-28T04:25:20;13.15;;;7.85;;
73697;SDS011;62004;42.566;23.164;2022-12-28T04:27:45;12.25;;;7.65;;
73697;SDS011;62004;42.566;23.164;2022-12-28T04:30:10;12.63;;;8.05;;
73697;SDS011;62004;42.566;23.164;2022-12-28T04:32:36;13.88;;;8.80;;
73697;SDS011;62004;42.566;23.164;2022-12-28T04:35:01;14.63;;;8.23;;
73697;SDS011;62004;42.566;23.164;2022-12-28T04:37:27;14.50;;;7.57;;
73697;SDS011;62004;42.566;23.164;2022-12-28T04:39:52;16.60;;;9.60;;
73697;SDS011;62004;42.566;23.164;2022-12-28T04:42:17;16.17;;;8.80;;
73697;SDS011;62004;42.566;23.164;2022-12-28T04:44:43;18.85;;;9.43;;
73697;SDS011;62004;42.566;23.164;2022-12-28T04:47:08;16.40;;;8.98;;
73697;SDS011;62004;42.566;23.164;2022-12-28T04:49:33;18.20;;;9.70;;
73697;SDS011;62004;42.566;23.164;2022-12-28T04:51:59;16.58;;;8.48;;
73697;SDS011;62004;42.566;23.164;2022-12-28T04:54:24;16.75;;;8.82;;
73697;SDS011;62004;42.566;23.164;2022-12-28T04:56:49;15.82;;;9.45;;
73697;SDS011;62004;42.566;23.164;2022-12-28T04:59:15;14.75;;;8.63;;
73697;SDS011;62004;42.566;23.164;2022-12-28T05:01:40;16.73;;;9.52;;
73697;SDS011;62004;42.566;23.164;2022-12-28T05:04:06;13.75;;;7.82;;
73697;SDS011;62004;42.566;23.164;2022-12-28T05:06:31;13.75;;;8.88;;
73697;SDS011;62004;42.566;23.164;2022-12-28T05:08:56;16.23;;;8.88;;
73697;SDS011;62004;42.566;23.164;2022-12-28T05:11:23;13.40;;;8.85;;
73697;SDS011;62004;42.566;23.164;2022-12-28T05:13:50;17.70;;;9.07;;
73697;SDS011;62004;42.566;23.164;2022-12-28T05:16:17;19.25;;;9.45;;
73697;SDS011;62004;42.566;23.164;2022-12-28T05:18:43;15.95;;;8.80;;
73697;SDS011;62004;42.566;23.164;2022-12-28T05:21:13;16.02;;;8.90;;
73697;SDS011;62004;42.566;23.164;2022-12-28T05:23:40;16.40;;;9.30;;
73697;SDS011;62004;42.566;23.164;2022-12-28T05:26:08;17.80;;;9.18;;
73697;SDS011;62004;42.566;23.164;2022-12-28T05:28:35;15.88;;;9.40;;
73697;SDS011;62004;42.566;23.164;2022-12-28T05:31:02;15.68;;;9.43;;
73697;SDS011;62004;42.566;23.164;2022-12-28T05:33:29;16.58;;;9.45;;
73697;SDS011;62004;42.566;23.164;2022-12-28T05:35:55;16.15;;;10.10;;
73697;SDS011;62004;42.566;23.164;2022-12-28T05:38:21;15.07;;;9.35;;
73697;SDS011;62004;42.566;23.164;2022-12-28T05:40:46;17.70;;;9.07;;
73697;SDS011;62004;42.566;23.164;2022-12-28T05:43:12;18.60;;;9.35;;
73697;SDS011;62004;42.566;23.164;2022-12-28T05:45:37;15.32;;;8.50;;
73697;SDS011;62004;42.566;23.164;2022-12-28T05:48:02;17.55;;;8.55;;
73697;SDS011;62004;42.566;23.164;2022-12-28T05:50:28;14.93;;;8.52;;
73697;SDS011;62004;42.566;23.164;2022-12-28T05:52:53;14.18;;;8.13;;
73697;SDS011;62004;42.566;23.164;2022-12-28T05:55:19;14.25;;;8.82;;
73697;SDS011;62004;42.566;23.164;2022-12-28T05:57:44;15.07;;;8.65;;
73697;SDS011;62004;42.566;23.164;2022-12-28T06:00:09;12.15;;;7.85;;
73697;SDS011;62004;42.566;23.164;2022-12-28T06:02:35;15.20;;;8.88;;
73697;SDS011;62004;42.566;23.164;2022-12-28T06:05:02;13.25;;;8.68;;
73697;SDS011;62004;42.566;23.164;2022-12-28T06:07:27;15.13;;;7.97;;
73697;SDS011;62004;42.566;23.164;2022-12-28T06:09:52;15.45;;;8.40;;
73697;SDS011;62004;42.566;23.164;2022-12-28T06:12:18;16.10;;;9.43;;
73697;SDS011;62004;42.566;23.164;2022-12-28T06:14:43;13.30;;;8.57;;
73697;SDS011;62004;42.566;23.164;2022-12-28T06:17:09;17.95;;;9.82;;
73697;SDS011;62004;42.566;23.164;2022-12-28T06:19:34;17.80;;;9.70;;
73697;SDS011;62004;42.566;23.164;2022-12-28T06:21:59;16.05;;;9.15;;
73697;SDS011;62004;42.566;23.164;2022-12-28T06:24:25;13.48;;;8.13;;
73697;SDS011;62004;42.566;23.164;2022-12-28T06:26:50;16.45;;;8.38;;
73697;SDS011;62004;42.566;23.164;2022-12-28T06:29:15;14.60;;;8.48;;
73697;SDS011;62004;42.566;23.164;2022-12-28T06:31:44;13.32;;;8.15;;
73697;SDS011;62004;42.566;23.164;2022-12-28T06:34:15;15.63;;;7.57;;
73697;SDS011;62004;42.566;23.164;2022-12-28T06:36:41;14.02;;;7.75;;
73697;SDS011;62004;42.566;23.164;2022-12-28T06:39:11;17.50;;;7.88;;
73697;SDS011;62004;42.566;23.164;2022-12-28T06:41:38;13.88;;;8.50;;
73697;SDS011;62004;42.566;23.164;2022-12-28T06:44:07;14.52;;;8.45;;
73697;SDS011;62004;42.566;23.164;2022-12-28T06:46:34;15.10;;;8.25;;
73697;SDS011;62004;42.566;23.164;2022-12-28T06:48:59;14.90;;;8.23;;
73697;SDS011;62004;42.566;23.164;2022-12-28T06:51:26;17.33;;;7.97;;
73697;SDS011;62004;42.566;23.164;2022-12-28T06:53:52;16.40;;;7.85;;
73697;SDS011;62004;42.566;23.164;2022-12-28T06:56:19;15.75;;;8.15;;
73697;SDS011;62004;42.566;23.164;2022-12-28T06:58:47;9.32;;;6.03;;
73697;SDS011;62004;42.566;23.164;2022-12-28T07:01:17;9.68;;;5.82;;
73697;SDS011;62004;42.566;23.164;2022-12-28T07:03:47;10.70;;;6.32;;
73697;SDS011;62004;42.566;23.164;2022-12-28T07:06:15;13.80;;;7.13;;
73697;SDS011;62004;42.566;23.164;2022-12-28T07:08:41;10.55;;;6.38;;
73697;SDS011;62004;42.566;23.164;2022-12-28T07:11:07;10.48;;;6.32;;
73697;SDS011;62004;42.566;23.164;2022-12-28T07:13:35;13.23;;;8.80;;
73697;SDS011;62004;42.566;23.164;2022-12-28T07:16:01;14.63;;;8.63;;
73697;SDS011;62004;42.566;23.164;2022-12-28T07:18:31;13.15;;;7.47;;
73697;SDS011;62004;42.566;23.164;2022-12-28T07:21:00;11.80;;;6.78;;
73697;SDS011;62004;42.566;23.164;2022-12-28T07:23:26;13.38;;;8.02;;
73697;SDS011;62004;42.566;23.164;2022-12-28T07:25:54;15.75;;;8.55;;
73697;SDS011;62004;42.566;23.164;2022-12-28T07:28:21;13.93;;;7.13;;
73697;SDS011;62004;42.566;23.164;2022-12-28T07:30:46;13.15;;;6.45;;
73697;SDS011;62004;42.566;23.164;2022-12-28T07:33:11;13.10;;;7.60;;
73697;SDS011;62004;42.566;23.164;2022-12-28T07:35:37;11.38;;;6.30;;
73697;SDS011;62004;42.566;23.164;2022-12-28T07:38:02;11.45;;;7.55;;
73697;SDS011;62004;42.566;23.164;2022-12-28T07:40:27;11.90;;;7.22;;
73697;SDS011;62004;42.566;23.164;2022-12-28T07:42:53;11.00;;;6.60;;
73697;SDS011;62004;42.566;23.164;2022-12-28T07:45:18;11.85;;;7.13;;
73697;SDS011;62004;42.566;23.164;2022-12-28T07:47:43;13.60;;;6.72;;
73697;SDS011;62004;42.566;23.164;2022-12-28T07:50:09;11.50;;;6.50;;
73697;SDS011;62004;42.566;23.164;2022-12-28T07:52:35;9.98;;;6.45;;
73697;SDS011;62004;42.566;23.164;2022-12-28T07:55:01;10.15;;;6.30;;
73697;SDS011;62004;42.566;23.164;2022-12-28T07:57:26;11.80;;;6.65;;
73697;SDS011;62004;42.566;23.164;2022-12-28T07:59:52;13.30;;;7.18;;
73697;SDS011;62004;42.566;23.164;2022-12-28T08:02:17;13.85;;;7.68;;
73697;SDS011;62004;42.566;23.164;2022-12-28T08:04:42;14.35;;;8.23;;
73697;SDS011;62004;42.566;23.164;2022-12-28T08:07:08;14.55;;;8.23;;
73697;SDS011;62004;42.566;23.164;2022-12-28T08:09:33;15.75;;;7.57;;
73697;SDS011;62004;42.566;23.164;2022-12-28T08:11:59;13.73;;;8.30;;
73697;SDS011;62004;42.566;23.164;2022-12-28T08:14:24;13.25;;;8.65;;
73697;SDS011;62004;42.566;23.164;2022-12-28T08:16:50;15.60;;;9.85;;
73697;SDS011;62004;42.566;23.164;2022-12-28T08:19:15;16.42;;;9.52;;
73697;SDS011;62004;42.566;23.164;2022-12-28T08:21:41;14.80;;;9.05;;
73697;SDS011;62004;42.566;23.164;2022-12-28T08:24:08;14.88;;;7.90;;
73697;SDS011;62004;42.566;23.164;2022-12-28T08:29:05;13.55;;;8.30;;
73697;SDS011;62004;42.566;23.164;2022-12-28T08:31:33;14.38;;;7.88;;
73697;SDS011;62004;42.566;23.164;2022-12-28T08:34:00;12.50;;;7.13;;
73697;SDS011;62004;42.566;23.164;2022-12-28T08:36:26;13.13;;;7.75;;
73697;SDS011;62004;42.566;23.164;2022-12-28T08:38:52;10.65;;;7.00;;
73697;SDS011;62004;42.566;23.164;2022-12-28T08:41:22;12.15;;;7.10;;
73697;SDS011;62004;42.566;23.164;2022-12-28T08:46:20;14.10;;;7.60;;
73697;SDS011;62004;42.566;23.164;2022-12-28T08:48:47;13.45;;;8.10;;
73697;SDS011;62004;42.566;23.164;2022-12-28T08:53:52;12.73;;;7.22;;
73697;SDS011;62004;42.566;23.164;2022-12-28T08:56:19;15.18;;;8.75;;
73697;SDS011;62004;42.566;23.164;2022-12-28T08:58:47;13.43;;;7.13;;
73697;SDS011;62004;42.566;23.164;2022-12-28T09:01:16;12.45;;;6.80;;
73697;SDS011;62004;42.566;23.164;2022-12-28T09:03:45;12.68;;;7.75;;
73697;SDS011;62004;42.566;23.164;2022-12-28T09:06:15;9.88;;;6.60;;
73697;SDS011;62004;42.566;23.164;2022-12-28T09:08:42;9.52;;;6.97;;
73697;SDS011;62004;42.566;23.164;2022-12-28T09:11:09;12.90;;;7.32;;
73697;SDS011;62004;42.566;23.164;2022-12-28T09:13:36;12.40;;;6.72;;
73697;SDS011;62004;42.566;23.164;2022-12-28T09:16:04;13.73;;;6.90;;
73697;SDS011;62004;42.566;23.164;2022-12-28T09:18:31;10.65;;;7.22;;
73697;SDS011;62004;42.566;23.164;2022-12-28T09:20:56;11.10;;;7.43;;
73697;SDS011;62004;42.566;23.164;2022-12-28T09:23:29;13.00;;;7.68;;
73697;SDS011;62004;42.566;23.164;2022-12-28T09:25:54;11.73;;;7.03;;
73697;SDS011;62004;42.566;23.164;2022-12-28T09:28:19;13.52;;;7.00;;
73697;SDS011;62004;42.566;23.164;2022-12-28T09:30:45;12.68;;;6.55;;
73697;SDS011;62004;42.566;23.164;2022-12-28T09:33:10;12.32;;;7.03;;
73697;SDS011;62004;42.566;23.164;2022-12-28T09:35:57;12.38;;;6.30;;
73697;SDS011;62004;42.566;23.164;2022-12-28T09:38:23;11.85;;;6.80;;
73697;SDS011;62004;42.566;23.164;2022-12-28T09:40:49;13.27;;;6.53;;
73697;SDS011;62004;42.566;23.164;2022-12-28T09:43:14;17.52;;;6.97;;
73697;SDS011;62004;42.566;23.164;2022-12-28T09:45:40;10.65;;;6.50;;
73697;SDS011;62004;42.566;23.164;2022-12-28T09:48:08;11.75;;;6.50;;
73697;SDS011;62004;42.566;23.164;2022-12-28T09:50:36;10.27;;;6.25;;
73697;SDS011;62004;42.566;23.164;2022-12-28T09:58:25;16.33;;;7.82;;
73697;SDS011;62004;42.566;23.164;2022-12-28T10:00:52;14.30;;;7.63;;
73697;SDS011;62004;42.566;23.164;2022-12-28T10:05:52;11.73;;;6.70;;
73697;SDS011;62004;42.566;23.164;2022-12-28T10:08:19;16.88;;;7.22;;
73697;SDS011;62004;42.566;23.164;2022-12-28T10:10:46;9.65;;;5.97;;
73697;SDS011;62004;42.566;23.164;2022-12-28T10:13:22;9.45;;;5.53;;
73697;SDS011;62004;42.566;23.164;2022-12-28T10:15:49;14.32;;;6.15;;
73697;SDS011;62004;42.566;23.164;2022-12-28T10:18:17;9.30;;;5.25;;
73697;SDS011;62004;42.566;23.164;2022-12-28T10:20:47;9.20;;;5.35;;
73697;SDS011;62004;42.566;23.164;2022-12-28T10:23:14;8.43;;;5.25;;
73697;SDS011;62004;42.566;23.164;2022-12-28T10:25:42;9.57;;;5.80;;
73697;SDS011;62004;42.566;23.164;2022-12-28T10:28:08;8.98;;;5.20;;
73697;SDS011;62004;42.566;23.164;2022-12-28T10:30:43;23.52;;;5.72;;
73697;SDS011;62004;42.566;23.164;2022-12-28T10:33:17;8.40;;;4.90;;
73697;SDS011;62004;42.566;23.164;2022-12-28T10:35:50;9.82;;;5.63;;
73697;SDS011;62004;42.566;23.164;2022-12-28T10:38:23;10.38;;;5.75;;
73697;SDS011;62004;42.566;23.164;2022-12-28T10:41:01;10.70;;;6.38;;
73697;SDS011;62004;42.566;23.164;2022-12-28T10:43:36;10.65;;;5.72;;
73697;SDS011;62004;42.566;23.164;2022-12-28T10:46:05;8.38;;;5.15;;
73697;SDS011;62004;42.566;23.164;2022-12-28T10:48:38;11.07;;;6.00;;
73697;SDS011;62004;42.566;23.164;2022-12-28T10:53:43;8.82;;;5.20;;
73697;SDS011;62004;42.566;23.164;2022-12-28T10:58:35;8.48;;;4.93;;
73697;SDS011;62004;42.566;23.164;2022-12-28T11:01:03;9.32;;;6.03;;
73697;SDS011;62004;42.566;23.164;2022-12-28T11:03:41;9.45;;;5.35;;
73697;SDS011;62004;42.566;23.164;2022-12-28T11:08:33;9.30;;;5.57;;
73697;SDS011;62004;42.566;23.164;2022-12-28T11:11:00;11.88;;;7.05;;
73697;SDS011;62004;42.566;23.164;2022-12-28T11:13:25;9.30;;;5.45;;
73697;SDS011;62004;42.566;23.164;2022-12-28T11:15:51;13.63;;;5.60;;
73697;SDS011;62004;42.566;23.164;2022-12-28T11:18:17;9.05;;;5.80;;
73697;SDS011;62004;42.566;23.164;2022-12-28T11:20:44;11.50;;;5.78;;
73697;SDS011;62004;42.566;23.164;2022-12-28T11:23:18;12.90;;;6.13;;
73697;SDS011;62004;42.566;23.164;2022-12-28T11:25:45;10.07;;;6.28;;
73697;SDS011;62004;42.566;23.164;2022-12-28T11:28:12;12.15;;;7.03;;
73697;SDS011;62004;42.566;23.164;2022-12-28T11:30:40;12.30;;;7.15;;
73697;SDS011;62004;42.566;23.164;2022-12-28T11:33:19;12.68;;;7.00;;
73697;SDS011;62004;42.566;23.164;2022-12-28T11:36:04;12.05;;;6.72;;
73697;SDS011;62004;42.566;23.164;2022-12-28T11:38:44;15.05;;;8.02;;
73697;SDS011;62004;42.566;23.164;2022-12-28T11:43:57;11.45;;;7.28;;
73697;SDS011;62004;42.566;23.164;2022-12-28T11:53:55;16.23;;;8.25;;
73697;SDS011;62004;42.566;23.164;2022-12-28T11:56:25;14.75;;;8.95;;
73697;SDS011;62004;42.566;23.164;2022-12-28T12:11:50;15.13;;;8.70;;
73697;SDS011;62004;42.566;23.164;2022-12-28T12:14:17;16.95;;;9.07;;
73697;SDS011;62004;42.566;23.164;2022-12-28T12:16:47;15.60;;;8.82;;
73697;SDS011;62004;42.566;23.164;2022-12-28T12:19:27;16.08;;;8.68;;
73697;SDS011;62004;42.566;23.164;2022-12-28T12:22:01;19.88;;;10.10;;
73697;SDS011;62004;42.566;23.164;2022-12-28T12:30:04;20.08;;;11.27;;
73697;SDS011;62004;42.566;23.164;2022-12-28T12:32:37;18.17;;;10.75;;
73697;SDS011;62004;42.566;23.164;2022-12-28T12:35:07;20.90;;;11.10;;
73697;SDS011;62004;42.566;23.164;2022-12-28T12:43:39;17.55;;;9.88;;
73697;SDS011;62004;42.566;23.164;2022-12-28T12:48:43;15.32;;;7.70;;
73697;SDS011;62004;42.566;23.164;2022-12-28T12:57:10;13.75;;;7.47;;
73697;SDS011;62004;42.566;23.164;2022-12-28T13:05:20;14.93;;;8.38;;
73697;SDS011;62004;42.566;23.164;2022-12-28T13:07:48;14.93;;;8.93;;
73697;SDS011;62004;42.566;23.164;2022-12-28T13:10:36;15.27;;;8.95;;
73697;SDS011;62004;42.566;23.164;2022-12-28T13:13:00;15.90;;;9.48;;
73697;SDS011;62004;42.566;23.164;2022-12-28T13:15:27;16.33;;;8.60;;
73697;SDS011;62004;42.566;23.164;2022-12-28T13:20:24;15.77;;;9.15;;
73697;SDS011;62004;42.566;23.164;2022-12-28T13:22:49;16.52;;;8.88;;
73697;SDS011;62004;42.566;23.164;2022-12-28T13:25:49;15.15;;;8.30;;
73697;SDS011;62004;42.566;23.164;2022-12-28T13:28:16;15.77;;;9.48;;
73697;SDS011;62004;42.566;23.164;2022-12-28T13:30:53;18.02;;;11.05;;
73697;SDS011;62004;42.566;23.164;2022-12-28T13:33:20;15.25;;;8.73;;
73697;SDS011;62004;42.566;23.164;2022-12-28T13:35:45;15.38;;;9.27;;
73697;SDS011;62004;42.566;23.164;2022-12-28T13:38:12;17.05;;;8.98;;
73697;SDS011;62004;42.566;23.164;2022-12-28T13:40:38;15.13;;;8.77;;
73697;SDS011;62004;42.566;23.164;2022-12-28T13:45:50;13.77;;;7.93;;
73697;SDS011;62004;42.566;23.164;2022-12-28T13:48:17;12.77;;;6.88;;
73697;SDS011;62004;42.566;23.164;2022-12-28T13:50:42;12.13;;;6.75;;
73697;SDS011;62004;42.566;23.164;2022-12-28T13:53:10;10.57;;;6.20;;
73697;SDS011;62004;42.566;23.164;2022-12-28T13:58:09;11.15;;;5.85;;
73697;SDS011;62004;42.566;23.164;2022-12-28T14:00:43;10.73;;;7.45;;
73697;SDS011;62004;42.566;23.164;2022-12-28T14:03:10;12.63;;;7.18;;
73697;SDS011;62004;42.566;23.164;2022-12-28T14:05:36;12.52;;;7.18;;
73697;SDS011;62004;42.566;23.164;2022-12-28T14:08:03;25.85;;;14.02;;
73697;SDS011;62004;42.566;23.164;2022-12-28T14:10:29;28.63;;;15.73;;
73697;SDS011;62004;42.566;23.164;2022-12-28T14:12:54;27.25;;;15.77;;
73697;SDS011;62004;42.566;23.164;2022-12-28T14:15:20;24.67;;;14.55;;
73697;SDS011;62004;42.566;23.164;2022-12-28T14:17:46;25.67;;;11.95;;
73697;SDS011;62004;42.566;23.164;2022-12-28T14:20:12;18.13;;;9.07;;
73697;SDS011;62004;42.566;23.164;2022-12-28T14:22:38;23.42;;;13.57;;
73697;SDS011;62004;42.566;23.164;2022-12-28T14:25:11;27.85;;;14.80;;
73697;SDS011;62004;42.566;23.164;2022-12-28T14:27:54;28.50;;;15.60;;
73697;SDS011;62004;42.566;23.164;2022-12-28T14:30:23;29.02;;;15.50;;
73697;SDS011;62004;42.566;23.164;2022-12-28T14:32:53;24.42;;;14.20;;
73697;SDS011;62004;42.566;23.164;2022-12-28T14:35:22;22.48;;;13.23;;
73697;SDS011;62004;42.566;23.164;2022-12-28T14:37:51;22.98;;;13.75;;
73697;SDS011;62004;42.566;23.164;2022-12-28T14:40:31;26.45;;;14.00;;
73697;SDS011;62004;42.566;23.164;2022-12-28T14:43:02;20.15;;;11.40;;
73697;SDS011;62004;42.566;23.164;2022-12-28T14:45:45;20.88;;;10.98;;
73697;SDS011;62004;42.566;23.164;2022-12-28T14:50:55;26.27;;;15.40;;
73697;SDS011;62004;42.566;23.164;2022-12-28T14:53:25;23.38;;;13.55;;
73697;SDS011;62004;42.566;23.164;2022-12-28T14:56:10;21.27;;;12.82;;
73697;SDS011;62004;42.566;23.164;2022-12-28T14:58:50;25.20;;;13.30;;
73697;SDS011;62004;42.566;23.164;2022-12-28T15:01:18;21.10;;;11.95;;
73697;SDS011;62004;42.566;23.164;2022-12-28T15:03:55;28.77;;;14.20;;
73697;SDS011;62004;42.566;23.164;2022-12-28T15:06:31;21.65;;;12.82;;
73697;SDS011;62004;42.566;23.164;2022-12-28T15:08:57;20.48;;;10.23;;
73697;SDS011;62004;42.566;23.164;2022-12-28T15:11:24;20.52;;;11.43;;
73697;SDS011;62004;42.566;23.164;2022-12-28T15:13:51;19.83;;;10.98;;
73697;SDS011;62004;42.566;23.164;2022-12-28T15:16:17;21.17;;;10.93;;
73697;SDS011;62004;42.566;23.164;2022-12-28T15:18:43;22.42;;;11.38;;
73697;SDS011;62004;42.566;23.164;2022-12-28T15:21:10;24.75;;;13.07;;
73697;SDS011;62004;42.566;23.164;2022-12-28T15:23:36;22.45;;;13.10;;
73697;SDS011;62004;42.566;23.164;2022-12-28T15:26:11;21.73;;;11.27;;
73697;SDS011;62004;42.566;23.164;2022-12-28T15:28:37;21.98;;;13.27;;
73697;SDS011;62004;42.566;23.164;2022-12-28T15:31:06;19.85;;;11.75;;
73697;SDS011;62004;42.566;23.164;2022-12-28T15:33:38;24.38;;;13.85;;
73697;SDS011;62004;42.566;23.164;2022-12-28T15:36:08;23.65;;;11.75;;
73697;SDS011;62004;42.566;23.164;2022-12-28T15:38:36;20.25;;;13.07;;
73697;SDS011;62004;42.566;23.164;2022-12-28T15:41:01;24.67;;;12.57;;
73697;SDS011;62004;42.566;23.164;2022-12-28T15:43:27;20.27;;;12.18;;
73697;SDS011;62004;42.566;23.164;2022-12-28T15:45:56;29.83;;;13.35;;
73697;SDS011;62004;42.566;23.164;2022-12-28T15:48:23;20.55;;;12.13;;
73697;SDS011;62004;42.566;23.164;2022-12-28T15:50:49;19.52;;;11.43;;
73697;SDS011;62004;42.566;23.164;2022-12-28T15:53:15;19.05;;;12.15;;
73697;SDS011;62004;42.566;23.164;2022-12-28T15:55:41;14.98;;;9.80;;
73697;SDS011;62004;42.566;23.164;2022-12-28T15:58:06;13.35;;;7.80;;
73697;SDS011;62004;42.566;23.164;2022-12-28T16:00:31;15.75;;;9.88;;
73697;SDS011;62004;42.566;23.164;2022-12-28T16:02:57;17.23;;;10.30;;
73697;SDS011;62004;42.566;23.164;2022-12-28T16:05:22;21.50;;;13.20;;
73697;SDS011;62004;42.566;23.164;2022-12-28T16:07:48;23.38;;;12.35;;
73697;SDS011;62004;42.566;23.164;2022-12-28T16:10:13;21.05;;;12.43;;